Time;durP1;ratioP1;P1;durP2;ratioP2;P2;SDS_P1;SDS_P2;PMS_P1;PMS_P2;Temp;Humidity;BMP_temperature;BMP_pressure;BME280_temperature;BME280_humidity;BME280_pressure;Samples;Min_cycle;Max_cycle;Signal;HPM_P1;HPM_P2
2023/11/04 00:01:29;;;;;;;8.15;3.85;;;;;;;;;;6336278;28;20047;-66
2023/11/04 00:04:32;;;;;;;5.55;3.25;;;;;;;;;;6339885;27;20055;-66
2023/11/04 00:07:34;;;;;;;8.07;4.88;;;;;;;;;;6340167;27;20058;-65
2023/11/04 00:10:36;;;;;;;7.88;6.53;;;;;;;;;;6335776;28;20797;-65
2023/11/04 00:13:39;;;;;;;9.13;6.78;;;;;;;;;;6340609;27;20438;-65
2023/11/04 00:16:41;;;;;;;8.85;4.93;;;;;;;;;;6338545;27;20046;-65
2023/11/04 00:19:43;;;;;;;12.18;4.80;;;;;;;;;;6335845;28;20050;-65
2023/11/04 00:22:45;;;;;;;8.45;5.03;;;;;;;;;;6340090;28;20039;-65
2023/11/04 00:25:47;;;;;;;9.90;5.53;;;;;;;;;;6350233;28;20047;-65
2023/11/04 00:28:49;;;;;;;8.52;5.63;;;;;;;;;;6344345;28;20044;-66
2023/11/04 00:31:51;;;;;;;10.80;5.03;;;;;;;;;;6341152;28;20051;-66
2023/11/04 00:35:12;;;;;;;8.82;4.97;;;;;;;;;;6337556;28;20101;-65
2023/11/04 00:38:35;;;;;;;10.93;7.70;;;;;;;;;;6338554;27;20767;-65
2023/11/04 00:41:57;;;;;;;9.93;4.88;;;;;;;;;;6313276;28;20655;-65
2023/11/04 00:45:18;;;;;;;11.95;5.47;;;;;;;;;;6349162;27;20051;-66
2023/11/04 00:48:41;;;;;;;9.18;4.85;;;;;;;;;;6342718;27;20227;-66
2023/11/04 00:52:04;;;;;;;10.45;5.45;;;;;;;;;;6346308;27;20059;-65
2023/11/04 00:55:26;;;;;;;10.13;4.55;;;;;;;;;;6346787;27;20047;-65
2023/11/04 00:58:48;;;;;;;8.75;4.97;;;;;;;;;;6353284;27;20059;-65
2023/11/04 01:02:10;;;;;;;8.50;4.15;;;;;;;;;;6344207;27;20098;-65
2023/11/04 01:05:32;;;;;;;8.80;3.40;;;;;;;;;;6343491;27;20047;-65
2023/11/04 01:08:54;;;;;;;6.45;2.90;;;;;;;;;;6336998;27;20074;-65
2023/11/04 01:12:17;;;;;;;9.32;3.50;;;;;;;;;;6335688;28;20544;-66
2023/11/04 01:15:39;;;;;;;8.25;5.15;;;;;;;;;;6328873;28;20438;-65
2023/11/04 01:19:01;;;;;;;9.68;2.97;;;;;;;;;;6345228;27;20048;-66
2023/11/04 01:22:23;;;;;;;9.60;3.55;;;;;;;;;;6338751;28;20048;-66
2023/11/04 01:25:45;;;;;;;7.80;3.40;;;;;;;;;;6335833;27;20043;-65
2023/11/04 01:29:10;;;;;;;5.82;3.00;;;;;;;;;;6328004;27;20055;-66
2023/11/04 01:32:32;;;;;;;8.70;4.50;;;;;;;;;;6346528;27;20445;-66
2023/11/04 01:35:54;;;;;;;8.25;2.63;;;;;;;;;;6339575;27;20107;-66
2023/11/04 01:39:17;;;;;;;8.07;3.60;;;;;;;;;;6340858;27;20676;-66
2023/11/04 01:42:43;;;;;;;7.60;2.75;;;;;;;;;;6318729;28;20047;-66
2023/11/04 01:46:20;;;;;;;8.57;2.47;;;;;;;;;;6318736;27;20062;-66
2023/11/04 01:49:42;;;;;;;6.75;2.22;;;;;;;;;;6341973;27;20121;-65
2023/11/04 01:53:03;;;;;;;6.47;2.03;;;;;;;;;;6336468;28;20062;-65
2023/11/04 01:56:29;;;;;;;8.07;3.05;;;;;;;;;;6338792;27;20095;-65
2023/11/04 01:59:53;;;;;;;7.40;2.40;;;;;;;;;;6324344;27;20071;-66
2023/11/04 02:03:18;;;;;;;8.85;3.58;;;;;;;;;;6337392;28;20040;-66
2023/11/04 02:06:43;;;;;;;5.63;4.00;;;;;;;;;;6318186;28;20094;-65
2023/11/04 02:10:06;;;;;;;6.18;3.78;;;;;;;;;;6319038;27;20718;-66
2023/11/04 02:13:28;;;;;;;5.30;2.85;;;;;;;;;;6321337;28;20051;-65
2023/11/04 02:16:52;;;;;;;10.82;3.45;;;;;;;;;;6337986;27;20056;-65
2023/11/04 02:20:15;;;;;;;6.32;2.60;;;;;;;;;;6342892;27;20055;-65
2023/11/04 02:23:37;;;;;;;6.47;2.83;;;;;;;;;;6323846;28;20060;-65
2023/11/04 02:26:59;;;;;;;7.10;3.10;;;;;;;;;;6347792;27;20188;-65
2023/11/04 02:30:21;;;;;;;6.88;2.85;;;;;;;;;;6340354;27;20168;-65
2023/11/04 02:33:43;;;;;;;7.35;3.33;;;;;;;;;;6314279;28;20530;-65
2023/11/04 02:37:05;;;;;;;7.75;3.13;;;;;;;;;;6320071;28;20071;-65
2023/11/04 02:40:28;;;;;;;9.07;2.70;;;;;;;;;;6331041;27;20631;-65
2023/11/04 02:43:50;;;;;;;11.45;2.75;;;;;;;;;;6334986;27;20109;-66
2023/11/04 02:47:16;;;;;;;6.32;2.30;;;;;;;;;;6328875;27;20047;-65
2023/11/04 02:50:39;;;;;;;7.07;2.72;;;;;;;;;;6341804;27;20051;-65
2023/11/04 02:54:01;;;;;;;4.93;2.15;;;;;;;;;;6336649;28;20048;-65
2023/11/04 02:57:23;;;;;;;3.72;1.80;;;;;;;;;;6324280;28;20557;-65
2023/11/04 03:00:45;;;;;;;8.70;6.60;;;;;;;;;;6337700;27;20433;-65
2023/11/04 03:04:08;;;;;;;6.55;1.70;;;;;;;;;;6323344;28;20055;-65
2023/11/04 03:07:30;;;;;;;;;;;;;;;;;;6343683;27;20141;-66
2023/11/04 03:10:53;;;;;;;4.45;2.33;;;;;;;;;;6314035;27;20453;-66
2023/11/04 03:14:15;;;;;;;2.75;1.42;;;;;;;;;;6340222;27;20569;-65
2023/11/04 03:17:37;;;;;;;3.15;1.23;;;;;;;;;;6342926;27;20132;-65
2023/11/04 03:21:06;;;;;;;5.50;1.38;;;;;;;;;;6341603;27;20040;-64
2023/11/04 03:24:28;;;;;;;4.80;1.75;;;;;;;;;;6337674;28;20055;-66
2023/11/04 03:27:50;;;;;;;5.85;4.28;;;;;;;;;;6324407;27;20125;-65
2023/11/04 03:31:12;;;;;;;4.50;1.27;;;;;;;;;;6335409;27;20177;-66
2023/11/04 03:34:34;;;;;;;3.75;1.65;;;;;;;;;;6335744;28;20583;-66
2023/11/04 03:37:56;;;;;;;5.43;2.13;;;;;;;;;;6341971;27;20177;-65
2023/11/04 03:41:18;;;;;;;4.07;1.30;;;;;;;;;;6350093;27;20092;-65
2023/11/04 03:44:40;;;;;;;5.05;4.32;;;;;;;;;;6342454;27;21012;-65
2023/11/04 03:48:03;;;;;;;9.15;2.60;;;;;;;;;;6348502;27;20727;-64
2023/11/04 03:51:26;;;;;;;6.30;1.92;;;;;;;;;;6344067;27;20075;-64
2023/11/04 03:54:48;;;;;;;5.00;2.00;;;;;;;;;;6336553;28;20098;-66
2023/11/04 03:58:10;;;;;;;4.47;2.25;;;;;;;;;;6334378;28;20036;-66
2023/11/04 04:01:39;;;;;;;6.63;2.33;;;;;;;;;;6339268;27;20050;-66
2023/11/04 04:05:01;;;;;;;;;;;;;;;;;;6332002;28;20046;-65
2023/11/04 04:08:23;;;;;;;;;;;;;;;;;;6336449;27;19935;-65
2023/11/04 04:11:44;;;;;;;;;;;;;;;;;;6339753;27;19930;-65
2023/11/04 04:15:07;;;;;;;8.15;3.97;;;;;;;;;;6333505;28;19924;-65
2023/11/04 04:18:29;;;;;;;6.30;3.55;;;;;;;;;;6319416;28;20655;-66
2023/11/04 04:21:51;;;;;;;8.90;4.60;;;;;;;;;;6341026;27;20731;-66
2023/11/04 04:25:14;;;;;;;9.15;5.50;;;;;;;;;;6334231;28;20047;-66
2023/11/04 04:28:36;;;;;;;10.25;5.80;;;;;;;;;;6333474;28;20434;-66
2023/11/04 04:31:58;;;;;;;12.05;6.88;;;;;;;;;;6341548;28;20058;-67
2023/11/04 04:35:21;;;;;;;10.65;7.10;;;;;;;;;;6336057;28;20082;-65
2023/11/04 04:38:44;;;;;;;11.57;7.70;;;;;;;;;;6337173;28;20066;-66
2023/11/04 04:42:06;;;;;;;13.40;6.38;;;;;;;;;;6340423;28;20051;-66
2023/11/04 04:45:29;;;;;;;10.55;7.40;;;;;;;;;;6335124;28;20058;-66
2023/11/04 04:48:52;;;;;;;11.82;6.68;;;;;;;;;;6334897;28;20502;-66
2023/11/04 04:52:16;;;;;;;8.25;5.15;;;;;;;;;;6338032;28;20209;-65
2023/11/04 04:55:38;;;;;;;10.55;5.47;;;;;;;;;;6334957;28;20068;-65
2023/11/04 04:59:00;;;;;;;11.02;6.05;;;;;;;;;;6343631;28;20051;-66
2023/11/04 05:02:22;;;;;;;10.85;5.80;;;;;;;;;;6338915;28;20062;-66
2023/11/04 05:05:44;;;;;;;9.15;3.60;;;;;;;;;;6333693;28;20040;-66
2023/11/04 05:09:06;;;;;;;3.78;0.88;;;;;;;;;;6334880;28;20574;-66
2023/11/04 05:12:28;;;;;;;6.13;1.25;;;;;;;;;;6333110;28;20043;-66
2023/11/04 05:15:50;;;;;;;5.60;1.13;;;;;;;;;;6331302;28;20839;-66
2023/11/04 05:19:12;;;;;;;3.22;1.30;;;;;;;;;;6329519;28;20461;-67
2023/11/04 05:22:34;;;;;;;3.15;1.02;;;;;;;;;;6331201;28;20035;-67
2023/11/04 05:25:57;;;;;;;2.80;1.15;;;;;;;;;;6334835;28;20051;-66
2023/11/04 05:29:19;;;;;;;2.30;1.20;;;;;;;;;;6335104;27;20043;-66
2023/11/04 05:32:41;;;;;;;7.38;1.70;;;;;;;;;;6345060;27;20044;-66
2023/11/04 05:36:04;;;;;;;3.15;1.48;;;;;;;;;;6337318;27;20549;-66
2023/11/04 05:39:26;;;;;;;4.60;1.42;;;;;;;;;;6352956;27;20048;-66
2023/11/04 05:42:48;;;;;;;4.63;1.40;;;;;;;;;;6336088;27;20050;-64
2023/11/04 05:46:10;;;;;;;8.02;1.58;;;;;;;;;;6338596;27;20054;-66
2023/11/04 05:49:31;;;;;;;5.43;1.83;;;;;;;;;;6339384;27;20089;-66
2023/11/04 05:52:53;;;;;;;3.05;1.38;;;;;;;;;;6337124;27;20055;-66
2023/11/04 05:56:19;;;;;;;6.25;1.83;;;;;;;;;;6331099;28;20047;-66
2023/11/04 05:59:45;;;;;;;5.03;3.55;;;;;;;;;;6340099;27;20426;-66
2023/11/04 06:03:08;;;;;;;4.88;1.80;;;;;;;;;;6314951;28;20138;-66
2023/11/04 06:06:30;;;;;;;;;;;;;;;;;;6334350;27;20039;-66
2023/11/04 06:09:52;;;;;;;5.85;4.05;;;;;;;;;;6328690;28;20421;-67
2023/11/04 06:13:14;;;;;;;8.68;2.35;;;;;;;;;;6327251;28;20044;-68
2023/11/04 06:16:36;;;;;;;4.00;2.10;;;;;;;;;;6345433;27;20043;-66
2023/11/04 06:19:58;;;;;;;5.07;1.95;;;;;;;;;;6341392;28;20043;-66
2023/11/04 06:23:20;;;;;;;4.88;3.28;;;;;;;;;;6330860;28;20062;-67
2023/11/04 06:26:42;;;;;;;7.05;3.50;;;;;;;;;;6336344;28;20507;-66
2023/11/04 06:30:06;;;;;;;9.05;6.60;;;;;;;;;;6335621;28;20430;-67
2023/11/04 06:33:29;;;;;;;7.68;3.35;;;;;;;;;;6331254;27;20047;-67
2023/11/04 06:36:51;;;;;;;9.38;2.45;;;;;;;;;;6334266;28;20063;-67
2023/11/04 06:40:13;;;;;;;5.55;2.03;;;;;;;;;;6325591;28;20126;-67
2023/11/04 06:43:35;;;;;;;6.78;3.30;;;;;;;;;;6330744;28;20755;-67
2023/11/04 06:46:57;;;;;;;5.10;2.33;;;;;;;;;;6342130;27;20054;-68
2023/11/04 06:50:20;;;;;;;6.13;1.70;;;;;;;;;;6338834;27;20067;-68
2023/11/04 06:53:22;;;;;;;6.47;2.22;;;;;;;;;;6345814;27;20052;-68
2023/11/04 06:56:25;;;;;;;4.38;1.98;;;;;;;;;;6328230;27;20054;-67
2023/11/04 06:59:27;;;;;;;5.07;1.50;;;;;;;;;;6345175;27;20082;-67
2023/11/04 07:02:29;;;;;;;10.00;3.13;;;;;;;;;;6339861;27;20048;-67
2023/11/04 07:05:31;;;;;;;9.57;2.00;;;;;;;;;;6339512;27;20051;-67
2023/11/04 07:08:33;;;;;;;6.63;2.33;;;;;;;;;;6328567;27;20553;-67
2023/11/04 07:11:36;;;;;;;5.10;2.45;;;;;;;;;;6334341;27;20063;-67
2023/11/04 07:14:38;;;;;;;5.15;2.53;;;;;;;;;;6323832;27;20060;-67
2023/11/04 07:17:40;;;;;;;5.50;1.85;;;;;;;;;;6331759;27;20063;-67
2023/11/04 07:20:42;;;;;;;9.77;2.45;;;;;;;;;;6339213;27;20051;-67
2023/11/04 07:23:45;;;;;;;7.75;2.40;;;;;;;;;;6331143;27;20050;-66
2023/11/04 07:26:47;;;;;;;5.95;2.30;;;;;;;;;;6338412;27;20047;-67
2023/11/04 07:29:52;;;;;;;4.70;2.13;;;;;;;;;;6340148;27;20048;-67
2023/11/04 07:32:54;;;;;;;7.80;2.50;;;;;;;;;;6341187;27;20050;-67
2023/11/04 07:35:57;;;;;;;9.52;3.28;;;;;;;;;;6331493;27;20047;-67
2023/11/04 07:39:02;;;;;;;7.47;4.35;;;;;;;;;;6349377;27;20051;-66
2023/11/04 07:42:05;;;;;;;4.97;2.25;;;;;;;;;;6334075;27;20039;-65
2023/11/04 07:45:11;;;;;;;9.80;3.67;;;;;;;;;;6344034;27;20054;-66
2023/11/04 07:48:14;;;;;;;5.38;2.22;;;;;;;;;;6350143;27;20023;-67
2023/11/04 07:51:16;;;;;;;5.97;2.47;;;;;;;;;;6331213;27;20126;-67
2023/11/04 07:54:19;;;;;;;12.00;5.88;;;;;;;;;;6341229;27;20039;-67
2023/11/04 07:57:21;;;;;;;25.30;9.75;;;;;;;;;;6343446;27;20048;-67
2023/11/04 08:00:23;;;;;;;10.65;3.53;;;;;;;;;;6344205;27;20058;-66
2023/11/04 08:03:25;;;;;;;11.20;3.40;;;;;;;;;;6340084;27;20047;-65
2023/11/04 08:06:27;;;;;;;9.77;2.53;;;;;;;;;;6342782;27;20138;-65
2023/11/04 08:09:31;;;;;;;9.43;3.42;;;;;;;;;;6342591;27;20043;-66
2023/11/04 08:12:34;;;;;;;12.27;3.00;;;;;;;;;;6334017;28;20554;-66
2023/11/04 08:15:38;;;;;;;5.72;2.70;;;;;;;;;;6337970;28;20055;-66
2023/11/04 08:18:41;;;;;;;9.13;3.95;;;;;;;;;;6344015;27;20047;-66
2023/11/04 08:21:44;;;;;;;8.35;2.38;;;;;;;;;;6341470;27;20045;-66
2023/11/04 08:24:47;;;;;;;5.90;2.15;;;;;;;;;;6343487;28;20050;-66
2023/11/04 08:27:49;;;;;;;7.68;2.95;;;;;;;;;;6338306;27;20059;-66
2023/11/04 08:30:51;;;;;;;8.57;2.75;;;;;;;;;;6342621;27;20044;-66
2023/11/04 08:33:53;;;;;;;7.10;4.20;;;;;;;;;;6341230;28;20123;-66
2023/11/04 08:36:59;;;;;;;5.95;1.98;;;;;;;;;;6346474;28;20062;-66
2023/11/04 08:40:01;;;;;;;6.15;2.50;;;;;;;;;;6341833;28;20050;-67
2023/11/04 08:43:04;;;;;;;8.77;2.47;;;;;;;;;;6340769;27;20039;-66
2023/11/04 08:46:07;;;;;;;9.80;3.60;;;;;;;;;;6346868;27;20046;-67
2023/11/04 08:49:09;;;;;;;11.35;5.40;;;;;;;;;;6336077;28;20062;-67
2023/11/04 08:52:11;;;;;;;4.60;2.47;;;;;;;;;;6345029;28;20048;-67
2023/11/04 08:55:14;;;;;;;4.50;2.08;;;;;;;;;;6340356;28;20047;-67
2023/11/04 08:58:16;;;;;;;5.72;1.92;;;;;;;;;;6338138;28;20074;-67
2023/11/04 09:01:18;;;;;;;3.67;1.58;;;;;;;;;;6335826;28;20438;-68
2023/11/04 09:04:20;;;;;;;4.80;2.08;;;;;;;;;;6340499;28;20043;-67
2023/11/04 09:07:29;;;;;;;2.72;1.40;;;;;;;;;;6354369;27;20058;-67
2023/11/04 09:10:33;;;;;;;5.18;2.88;;;;;;;;;;6348270;27;20043;-67
2023/11/04 09:13:35;;;;;;;12.27;5.97;;;;;;;;;;6343050;27;20152;-67
2023/11/04 09:16:37;;;;;;;7.57;4.78;;;;;;;;;;6380776;27;20047;-68
2023/11/04 09:19:39;;;;;;;4.45;2.15;;;;;;;;;;6360719;27;20051;-68
2023/11/04 09:22:41;;;;;;;3.72;2.67;;;;;;;;;;6342281;27;20070;-68
2023/11/04 09:25:43;;;;;;;6.57;3.55;;;;;;;;;;6348180;27;20043;-68
2023/11/04 09:28:45;;;;;;;11.77;5.45;;;;;;;;;;6340002;27;20047;-68
2023/11/04 09:31:47;;;;;;;11.93;4.97;;;;;;;;;;6339196;28;20063;-67
2023/11/04 09:34:49;;;;;;;9.98;7.65;;;;;;;;;;6338449;28;20052;-67
2023/11/04 09:37:51;;;;;;;12.32;10.60;;;;;;;;;;6338435;27;20082;-68
2023/11/04 09:40:53;;;;;;;8.70;3.75;;;;;;;;;;6347421;27;20455;-68
2023/11/04 09:43:57;;;;;;;11.32;8.35;;;;;;;;;;6343583;27;20153;-68
2023/11/04 09:47:00;;;;;;;10.70;5.82;;;;;;;;;;6336692;28;20055;-68
2023/11/04 09:50:04;;;;;;;7.88;4.90;;;;;;;;;;6340718;27;20048;-67
2023/11/04 09:53:13;;;;;;;9.40;5.38;;;;;;;;;;6347880;27;20050;-67
2023/11/04 09:56:15;;;;;;;7.07;4.30;;;;;;;;;;6345234;27;20047;-67
2023/11/04 09:59:17;;;;;;;10.15;5.78;;;;;;;;;;6342876;27;20043;-66
2023/11/04 10:02:19;;;;;;;19.77;13.70;;;;;;;;;;6353243;27;20043;-67
2023/11/04 10:05:22;;;;;;;30.10;21.73;;;;;;;;;;6344653;27;20415;-67
2023/11/04 10:08:24;;;;;;;13.40;8.15;;;;;;;;;;6330721;28;20051;-67
2023/11/04 10:11:28;;;;;;;11.00;6.93;;;;;;;;;;6348636;27;20553;-67
2023/11/04 10:14:34;;;;;;;13.38;7.45;;;;;;;;;;6341081;27;20600;-67
2023/11/04 10:17:36;;;;;;;5.68;3.63;;;;;;;;;;6378209;27;20112;-67
2023/11/04 10:20:38;;;;;;;5.95;1.88;;;;;;;;;;6344260;27;20612;-67
2023/11/04 10:23:40;;;;;;;8.25;4.38;;;;;;;;;;6342469;27;20055;-67
2023/11/04 10:26:43;;;;;;;9.50;2.28;;;;;;;;;;6339952;27;20054;-67
2023/11/04 10:29:46;;;;;;;4.68;2.67;;;;;;;;;;6336984;28;20035;-67
2023/11/04 10:32:53;;;;;;;4.78;3.55;;;;;;;;;;6344504;27;20047;-67
2023/11/04 10:35:56;;;;;;;14.07;7.22;;;;;;;;;;6353356;27;20092;-67
2023/11/04 10:39:04;;;;;;;12.60;7.93;;;;;;;;;;6346828;27;20039;-67
2023/11/04 10:42:11;;;;;;;4.32;2.45;;;;;;;;;;6347213;27;20058;-67
2023/11/04 10:45:16;;;;;;;5.93;2.75;;;;;;;;;;6336720;27;20071;-67
2023/11/04 10:48:44;;;;;;;4.20;3.78;;;;;;;;;;6336011;28;20764;-67
2023/11/04 10:52:09;;;;;;;3.92;1.70;;;;;;;;;;6342383;27;20588;-68
2023/11/04 10:55:13;;;;;;;2.40;1.23;;;;;;;;;;6335587;27;20039;-69
2023/11/04 10:58:30;;;;;;;5.22;1.70;;;;;;;;;;6345324;27;20108;-67
2023/11/04 11:01:32;;;;;;;4.28;1.52;;;;;;;;;;6342047;27;20051;-68
2023/11/04 11:04:35;;;;;;;25.00;13.30;;;;;;;;;;6336196;27;20048;-68
2023/11/04 11:07:41;;;;;;;21.88;12.43;;;;;;;;;;6343336;27;20051;-68
2023/11/04 11:10:47;;;;;;;4.45;1.95;;;;;;;;;;6338195;27;20043;-67
2023/11/04 11:13:52;;;;;;;3.15;1.80;;;;;;;;;;6335946;28;20056;-67
2023/11/04 11:16:59;;;;;;;3.25;1.20;;;;;;;;;;6335923;27;20044;-67
2023/11/04 11:20:03;;;;;;;2.17;1.27;;;;;;;;;;6334953;28;20051;-68
2023/11/04 11:23:09;;;;;;;4.35;3.15;;;;;;;;;;6345604;27;20063;-67
2023/11/04 11:26:14;;;;;;;1.90;1.13;;;;;;;;;;6335761;27;20040;-68
2023/11/04 11:29:22;;;;;;;1.10;0.60;;;;;;;;;;6342293;27;20032;-67
2023/11/04 11:32:34;;;;;;;2.47;1.10;;;;;;;;;;6334033;28;20086;-66
2023/11/04 11:36:02;;;;;;;3.10;1.70;;;;;;;;;;6336999;28;20459;-66
2023/11/04 11:39:04;;;;;;;3.83;1.58;;;;;;;;;;6345391;27;20047;-66
2023/11/04 11:42:07;;;;;;;3.13;1.23;;;;;;;;;;6343606;27;20047;-66
2023/11/04 11:45:09;;;;;;;2.55;1.20;;;;;;;;;;6337132;28;20078;-66
2023/11/04 11:48:19;;;;;;;3.67;1.95;;;;;;;;;;6341818;27;20062;-66
2023/11/04 11:51:21;;;;;;;3.38;1.63;;;;;;;;;;6338033;27;20035;-66
2023/11/04 11:54:24;;;;;;;1.95;0.90;;;;;;;;;;6346120;27;20082;-66
2023/11/04 11:57:27;;;;;;;1.73;0.70;;;;;;;;;;6341346;27;20043;-66
2023/11/04 12:00:29;;;;;;;2.17;1.00;;;;;;;;;;6329765;28;20073;-68
2023/11/04 12:03:33;;;;;;;1.05;0.93;;;;;;;;;;6332484;27;20180;-65
2023/11/04 12:06:36;;;;;;;1.35;0.70;;;;;;;;;;6339260;27;20054;-65
2023/11/04 12:09:40;;;;;;;1.60;0.60;;;;;;;;;;6341611;27;20062;-65
2023/11/04 12:12:44;;;;;;;3.95;3.55;;;;;;;;;;6344858;27;20414;-65
2023/11/04 12:15:46;;;;;;;2.08;0.70;;;;;;;;;;6336684;28;20128;-65
2023/11/04 12:18:52;;;;;;;2.10;1.20;;;;;;;;;;6339325;27;20070;-64
2023/11/04 12:21:54;;;;;;;2.35;1.65;;;;;;;;;;6335861;28;20453;-65
2023/11/04 12:24:57;;;;;;;1.90;1.33;;;;;;;;;;6330693;28;20068;-66
2023/11/04 12:28:04;;;;;;;3.65;1.30;;;;;;;;;;6331024;28;20043;-66
2023/11/04 12:31:07;;;;;;;2.30;1.33;;;;;;;;;;6328529;28;20040;-66
2023/11/04 12:34:09;;;;;;;2.25;1.00;;;;;;;;;;6329689;28;20124;-66
2023/11/04 12:37:11;;;;;;;6.10;2.80;;;;;;;;;;6329364;28;20458;-66
2023/11/04 12:40:13;;;;;;;4.80;1.70;;;;;;;;;;6339489;27;20046;-65
2023/11/04 12:43:16;;;;;;;13.90;5.57;;;;;;;;;;6346590;27;20051;-66
2023/11/04 12:46:20;;;;;;;23.20;8.20;;;;;;;;;;6326722;27;20043;-65
2023/11/04 12:49:22;;;;;;;29.73;10.77;;;;;;;;;;6329407;27;20137;-66
2023/11/04 12:52:28;;;;;;;55.97;19.25;;;;;;;;;;6332949;27;20085;-65
2023/11/04 12:55:30;;;;;;;15.10;4.95;;;;;;;;;;6336197;27;20130;-67
2023/11/04 12:58:38;;;;;;;4.35;1.48;;;;;;;;;;6343519;27;20065;-66
2023/11/04 13:01:41;;;;;;;3.28;1.30;;;;;;;;;;6336676;27;20036;-65
2023/11/04 13:04:43;;;;;;;13.35;5.10;;;;;;;;;;6341116;27;20043;-65
2023/11/04 13:07:46;;;;;;;26.17;8.38;;;;;;;;;;6335588;27;20053;-66
2023/11/04 13:10:49;;;;;;;26.20;7.65;;;;;;;;;;6340716;27;20035;-66
2023/11/04 13:13:53;;;;;;;50.72;12.57;;;;;;;;;;6346153;27;20047;-66
2023/11/04 13:16:56;;;;;;;52.83;13.25;;;;;;;;;;6353723;27;20142;-66
2023/11/04 13:20:00;;;;;;;93.47;23.52;;;;;;;;;;6346238;27;20048;-65
2023/11/04 13:23:05;;;;;;;25.63;8.10;;;;;;;;;;6339750;27;20560;-66
2023/11/04 13:26:07;;;;;;;51.75;13.98;;;;;;;;;;6336975;27;20535;-66
2023/11/04 13:29:09;;;;;;;8.32;3.20;;;;;;;;;;6342439;27;20050;-66
2023/11/04 13:32:11;;;;;;;4.78;4.13;;;;;;;;;;6343803;27;20677;-66
2023/11/04 13:35:14;;;;;;;10.10;4.30;;;;;;;;;;6344118;27;20040;-66
2023/11/04 13:38:22;;;;;;;6.85;3.45;;;;;;;;;;6344571;27;20044;-66
2023/11/04 13:41:24;;;;;;;5.90;2.13;;;;;;;;;;6330315;27;20036;-66
2023/11/04 13:44:26;;;;;;;5.70;2.58;;;;;;;;;;6347146;27;20048;-66
2023/11/04 13:47:34;;;;;;;8.20;4.30;;;;;;;;;;6326217;27;20043;-66
2023/11/04 13:50:37;;;;;;;12.10;4.53;;;;;;;;;;6332874;27;20043;-67
2023/11/04 13:53:40;;;;;;;15.88;5.82;;;;;;;;;;6339120;27;20066;-66
2023/11/04 13:56:45;;;;;;;23.85;7.95;;;;;;;;;;6336463;27;20062;-65
2023/11/04 13:59:49;;;;;;;9.77;5.70;;;;;;;;;;6337336;27;20105;-65
2023/11/04 14:02:51;;;;;;;13.20;4.18;;;;;;;;;;6338769;27;20044;-66
2023/11/04 14:05:55;;;;;;;18.10;6.75;;;;;;;;;;6344698;27;20506;-65
2023/11/04 14:08:59;;;;;;;34.97;11.88;;;;;;;;;;6331047;27;20051;-65
2023/11/04 14:12:03;;;;;;;17.15;5.78;;;;;;;;;;6345252;27;20047;-65
2023/11/04 14:15:06;;;;;;;27.58;8.27;;;;;;;;;;6341341;27;20124;-65
2023/11/04 14:18:09;;;;;;;28.92;8.88;;;;;;;;;;6331057;27;20040;-66
2023/11/04 14:21:11;;;;;;;14.98;4.22;;;;;;;;;;6333980;27;20050;-66
2023/11/04 14:24:14;;;;;;;17.65;5.38;;;;;;;;;;6329815;27;20047;-66
2023/11/04 14:27:17;;;;;;;25.52;6.82;;;;;;;;;;6328154;27;20059;-65
2023/11/04 14:30:21;;;;;;;15.23;6.10;;;;;;;;;;6339073;27;20681;-65
2023/11/04 14:33:25;;;;;;;9.00;3.10;;;;;;;;;;6333793;27;20046;-66
2023/11/04 14:36:27;;;;;;;6.13;5.32;;;;;;;;;;6331529;27;20685;-65
2023/11/04 14:39:29;;;;;;;5.40;2.58;;;;;;;;;;6324606;28;20162;-65
2023/11/04 14:42:31;;;;;;;3.47;2.35;;;;;;;;;;6335599;27;20051;-65
2023/11/04 14:45:34;;;;;;;4.53;2.08;;;;;;;;;;6326267;27;20053;-66
2023/11/04 14:48:38;;;;;;;;;;;;;;;;;;6340489;27;20047;-65
2023/11/04 14:51:40;;;;;;;4.47;2.20;;;;;;;;;;6340661;27;19937;-65
2023/11/04 14:54:43;;;;;;;41.75;21.08;;;;;;;;;;6337396;28;20054;-65
2023/11/04 14:57:46;;;;;;;10.38;3.35;;;;;;;;;;6339305;27;20035;-65
2023/11/04 15:00:48;;;;;;;17.60;8.20;;;;;;;;;;6340259;27;20040;-65
2023/11/04 15:03:50;;;;;;;17.45;8.32;;;;;;;;;;6337437;28;20044;-65
2023/11/04 15:06:52;;;;;;;22.33;12.57;;;;;;;;;;6350784;27;20437;-65
2023/11/04 15:09:54;;;;;;;23.25;12.95;;;;;;;;;;6333793;27;20039;-66
2023/11/04 15:12:56;;;;;;;12.30;6.97;;;;;;;;;;6339880;27;20054;-66
2023/11/04 15:15:58;;;;;;;11.82;6.28;;;;;;;;;;6351828;27;20123;-65
2023/11/04 15:19:01;;;;;;;14.23;10.68;;;;;;;;;;6356877;27;20280;-65
2023/11/04 15:22:04;;;;;;;7.45;5.25;;;;;;;;;;6331847;28;20459;-65
2023/11/04 15:25:08;;;;;;;7.80;7.00;;;;;;;;;;6333914;27;20671;-65
2023/11/04 15:28:12;;;;;;;8.55;4.63;;;;;;;;;;6329540;27;20131;-66
2023/11/04 15:31:15;;;;;;;5.55;2.38;;;;;;;;;;6330894;28;20044;-66
2023/11/04 15:34:17;;;;;;;5.05;2.45;;;;;;;;;;6348477;27;20173;-66
2023/11/04 15:37:21;;;;;;;4.88;2.63;;;;;;;;;;6337997;27;20046;-66
2023/11/04 15:40:23;;;;;;;3.95;2.10;;;;;;;;;;6338177;27;20052;-66
2023/11/04 15:43:25;;;;;;;3.90;2.92;;;;;;;;;;6332824;28;20056;-66
2023/11/04 15:46:28;;;;;;;3.88;2.60;;;;;;;;;;6335977;27;20980;-66
2023/11/04 15:49:30;;;;;;;8.57;2.55;;;;;;;;;;6322941;27;20465;-66
2023/11/04 15:52:32;;;;;;;6.28;5.72;;;;;;;;;;6337249;27;20422;-66
2023/11/04 15:55:34;;;;;;;4.45;2.95;;;;;;;;;;6336860;27;20526;-66
2023/11/04 15:58:36;;;;;;;5.22;2.92;;;;;;;;;;6345313;27;20051;-66
2023/11/04 16:01:39;;;;;;;5.13;2.38;;;;;;;;;;6331008;27;20047;-66
2023/11/04 16:04:41;;;;;;;3.70;2.05;;;;;;;;;;6345591;27;20053;-65
2023/11/04 16:07:44;;;;;;;5.55;2.55;;;;;;;;;;6332733;27;20051;-65
2023/11/04 16:10:46;;;;;;;6.68;3.67;;;;;;;;;;6326440;28;20837;-66
2023/11/04 16:13:49;;;;;;;15.13;9.95;;;;;;;;;;6329498;27;20078;-66
2023/11/04 16:16:51;;;;;;;10.95;7.72;;;;;;;;;;6336941;27;20048;-67
2023/11/04 16:19:53;;;;;;;5.03;3.13;;;;;;;;;;6336028;27;20040;-66
2023/11/04 16:22:55;;;;;;;6.97;4.32;;;;;;;;;;6347582;27;20071;-67
2023/11/04 16:25:58;;;;;;;5.70;3.80;;;;;;;;;;6337916;27;20081;-66
2023/11/04 16:28:59;;;;;;;5.22;3.42;;;;;;;;;;6346090;28;20735;-66
2023/11/04 16:32:02;;;;;;;4.25;2.13;;;;;;;;;;6338596;27;20126;-67
2023/11/04 16:35:05;;;;;;;4.07;2.42;;;;;;;;;;6333599;28;20119;-67
2023/11/04 16:38:08;;;;;;;6.22;3.00;;;;;;;;;;6339323;28;20055;-66
2023/11/04 16:41:10;;;;;;;4.63;2.75;;;;;;;;;;6334459;28;20039;-66
2023/11/04 16:44:13;;;;;;;7.28;4.05;;;;;;;;;;6335983;28;20050;-66
2023/11/04 16:47:16;;;;;;;31.95;17.05;;;;;;;;;;6336484;28;20044;-66
2023/11/04 16:50:18;;;;;;;11.00;3.95;;;;;;;;;;6335720;28;20047;-66
2023/11/04 16:53:21;;;;;;;11.18;6.55;;;;;;;;;;6352191;28;20518;-66
2023/11/04 16:56:23;;;;;;;14.98;8.73;;;;;;;;;;6342586;28;20093;-66
2023/11/04 16:59:25;;;;;;;30.77;15.77;;;;;;;;;;6337035;27;20054;-66
2023/11/04 17:02:27;;;;;;;21.63;11.85;;;;;;;;;;6348307;28;20078;-67
2023/11/04 17:05:29;;;;;;;23.05;16.60;;;;;;;;;;6337972;27;20185;-67
2023/11/04 17:08:32;;;;;;;19.23;9.68;;;;;;;;;;6349430;28;20048;-67
2023/11/04 17:11:34;;;;;;;16.75;10.00;;;;;;;;;;6339368;28;20043;-67
2023/11/04 17:14:36;;;;;;;12.80;8.95;;;;;;;;;;6344911;28;20055;-67
2023/11/04 17:17:39;;;;;;;14.07;8.25;;;;;;;;;;6338743;28;20050;-66
2023/11/04 17:20:42;;;;;;;6.50;4.78;;;;;;;;;;6332339;28;20047;-66
2023/11/04 17:23:44;;;;;;;5.50;3.70;;;;;;;;;;6336112;28;20662;-67
2023/11/04 17:26:46;;;;;;;9.57;3.78;;;;;;;;;;6346573;27;20156;-67
2023/11/04 17:29:48;;;;;;;12.02;4.07;;;;;;;;;;6342782;27;20040;-66
2023/11/04 17:32:50;;;;;;;8.20;6.35;;;;;;;;;;6349068;27;21225;-66
2023/11/04 17:35:52;;;;;;;7.97;4.47;;;;;;;;;;6339856;27;20055;-66
2023/11/04 17:38:54;;;;;;;7.80;5.25;;;;;;;;;;6339228;27;20040;-66
2023/11/04 17:41:58;;;;;;;6.78;3.88;;;;;;;;;;6339009;28;20177;-65
2023/11/04 17:45:00;;;;;;;4.60;3.03;;;;;;;;;;6339771;28;20051;-67
2023/11/04 17:48:02;;;;;;;5.13;2.78;;;;;;;;;;6338480;28;20059;-66
2023/11/04 17:51:05;;;;;;;2.33;1.25;;;;;;;;;;6350518;27;20092;-67
2023/11/04 17:54:08;;;;;;;2.47;1.25;;;;;;;;;;6338941;27;20040;-67
2023/11/04 17:57:11;;;;;;;2.97;1.38;;;;;;;;;;6345624;27;20047;-66
2023/11/04 18:00:13;;;;;;;2.80;1.05;;;;;;;;;;6348584;27;20055;-65
2023/11/04 18:03:16;;;;;;;2.25;1.33;;;;;;;;;;6339019;28;20041;-65
2023/11/04 18:06:18;;;;;;;3.90;1.90;;;;;;;;;;6339653;28;20054;-66
2023/11/04 18:09:23;;;;;;;2.03;1.13;;;;;;;;;;6339128;28;20048;-66
2023/11/04 18:12:26;;;;;;;3.85;1.30;;;;;;;;;;6339344;28;20532;-66
2023/11/04 18:15:28;;;;;;;3.38;1.13;;;;;;;;;;6339213;28;20050;-66
2023/11/04 18:18:31;;;;;;;3.42;1.45;;;;;;;;;;6361284;27;20067;-67
2023/11/04 18:21:33;;;;;;;6.90;2.78;;;;;;;;;;6340095;28;20043;-66
2023/11/04 18:24:35;;;;;;;5.15;3.42;;;;;;;;;;6339612;27;20430;-66
2023/11/04 18:27:37;;;;;;;5.20;1.30;;;;;;;;;;6348887;27;20518;-67
2023/11/04 18:30:59;;;;;;;2.60;1.40;;;;;;;;;;6337828;28;20480;-67
2023/11/04 18:34:01;;;;;;;3.47;1.75;;;;;;;;;;6336761;28;20055;-67
2023/11/04 18:37:04;;;;;;;3.97;3.65;;;;;;;;;;6338058;27;20490;-67
2023/11/04 18:40:07;;;;;;;2.53;1.30;;;;;;;;;;6337940;28;20678;-67
2023/11/04 18:43:09;;;;;;;2.03;1.23;;;;;;;;;;6339780;27;20046;-67
2023/11/04 18:46:14;;;;;;;1.70;1.05;;;;;;;;;;6346401;27;20126;-67
2023/11/04 18:49:17;;;;;;;3.33;1.80;;;;;;;;;;6342927;27;20573;-67
2023/11/04 18:52:20;;;;;;;2.03;1.10;;;;;;;;;;6337240;28;20059;-67